Pocatello Regional Airport
KPIH : now visible

Airfield :











YOU CAN JOIN US ON...

 
LOGIN :

Register | Disclaimer

   EN    FR    IT 

 









Legend :    VFR   Marginal VFR   IFR   Intensive IFR   Very Intensive IFR
Visi :
Ceiling :
>= 8 km
>= 3000ft
5 to 8 km
1000 to 3000 ft
1500m to 5 km
500 to 1000 ft
800 to 1500m
200 to 500 ft
< 800m
< 200 ft
Symbols :   Thunderstorms  Fog  Heavy snow  Heavy precipitations  Wind > 20 kt






- Airport Elevation : 4452 ft
- IATA code : PIH


KPIH - Pocatello Regional

CURRENT METAR :
  • 260153Z 23006KT 10SM CLR 19/03 A3007 RMK AO2 SLP156 T01940033

EXPIRED METARs :
  • 260053Z 25008KT 10SM FEW065 21/01 A3007 RMK AO2 SLP161 T02060011
  • 252353Z 26010KT 10SM FEW065 22/01 A3008 RMK AO2 SLP167 T02170006 10222 20172 56014

TAF KPIH
Valid from the 26 at 00:00 until the 27 at 00:00 UTC


252337Z 2600/2624 26010KT P6SM FEW070 FEW170
FM260200 19008KT P6SM SCT140
FM261300 22009KT P6SM VCSH SCT070 BKN100
FM261800 23014G24KT P6SM FEW070 SCT110
KZLC FIR / North America



MET'MAP, your aeronautical weather chart ! - Copyright ORBIFLY December 2007 - Disclaimer

ORBIFLY MET'MAP TEAM :

Programming & Development : Alexandra Zaïnal
Concept & original design : Baudouin d'Aumeries
Assistance for programming : Marc-Olivier Méhu
Technical & hardware support : Manuel Goepfert

Contact : metmap@orbifly.com




SOURCES & CREDITS :

   NOAA       Earth
Advisory